createdAt,value
2022-08-10T00:00:28.042Z,42.74
2022-08-10T00:01:28.016Z,41.52
2022-08-10T00:02:27.975Z,41.83
2022-08-10T00:03:27.964Z,43.67
2022-08-10T00:04:27.950Z,42.86
2022-08-10T00:05:27.939Z,44.07
2022-08-10T00:06:27.929Z,42.86
2022-08-10T00:07:27.917Z,41.75
2022-08-10T00:08:27.905Z,41.85
2022-08-10T00:09:27.897Z,41.35
2022-08-10T00:10:27.883Z,42.05
2022-08-10T00:11:27.871Z,41.14
2022-08-10T00:12:53.700Z,40.84
2022-08-10T00:13:27.849Z,40.73
2022-08-10T00:14:27.843Z,42.15
2022-08-10T00:15:51.870Z,42.05
2022-08-10T00:16:28.843Z,41.55
2022-08-10T00:17:27.805Z,40.73
2022-08-10T00:18:35.040Z,42.78
2022-08-10T00:19:27.784Z,40.64
2022-08-10T00:20:28.831Z,40.75
2022-08-10T00:21:27.760Z,42.07
2022-08-10T00:22:27.812Z,40.86
2022-08-10T00:23:27.739Z,39.14
2022-08-10T00:24:27.730Z,39.14
2022-08-10T00:25:27.728Z,40.05
2022-08-10T00:27:52.278Z,40.77
2022-08-10T00:27:58.568Z,39.04
2022-08-10T00:28:28.851Z,38.53
2022-08-10T00:29:27.669Z,37.92
2022-08-10T00:30:27.658Z,38.53
2022-08-10T00:31:27.647Z,38.33
2022-08-10T00:32:27.788Z,37.62
2022-08-10T00:33:27.626Z,40.55
2022-08-10T00:34:27.618Z,38.95
2022-08-10T00:35:27.601Z,37.94
2022-08-10T00:36:27.591Z,35.92
2022-08-10T00:37:27.578Z,38.55
2022-08-10T00:38:27.569Z,39.36
2022-08-10T00:39:27.621Z,38.06
2022-08-10T00:40:37.573Z,37.94
2022-08-10T00:41:28.606Z,37.96
2022-08-10T00:42:27.536Z,36.54
2022-08-10T00:43:27.508Z,36.65
2022-08-10T00:44:27.502Z,36.14
2022-08-10T00:45:27.485Z,37.55
2022-08-10T00:46:27.474Z,35.83
2022-08-10T00:47:36.695Z,37.55
2022-08-10T00:48:28.476Z,36.44
2022-08-10T00:49:27.439Z,35.63
2022-08-10T00:50:27.428Z,35.73
2022-08-10T00:51:40.434Z,34.82
2022-08-10T00:52:27.405Z,35.83
2022-08-10T00:53:27.392Z,35.02
2022-08-10T00:54:27.391Z,36.54
2022-08-10T00:55:27.372Z,35.83
2022-08-10T00:57:07.848Z,34.42
2022-08-10T00:57:28.370Z,35.22
2022-08-10T00:58:27.338Z,36.14
2022-08-10T00:59:27.326Z,37.76
2022-08-10T01:00:27.313Z,34.23
2022-08-10T01:02:09.108Z,35.73
2022-08-10T01:02:27.497Z,33.32
2022-08-10T01:04:42.056Z,33.22
2022-08-10T01:04:57.608Z,37.77
2022-08-10T01:05:28.281Z,33.92
2022-08-10T01:06:27.243Z,34.33
2022-08-10T01:07:27.231Z,33.72
2022-08-10T01:08:27.226Z,32.91
2022-08-10T01:09:27.210Z,32.91
2022-08-10T01:10:27.211Z,33.92
2022-08-10T01:12:28.689Z,36.15
2022-08-10T01:12:40.492Z,34.84
2022-08-10T01:13:28.190Z,35.95
2022-08-10T01:14:27.157Z,33.83
2022-08-10T01:15:27.141Z,33.32
2022-08-10T01:16:27.135Z,34.64
2022-08-10T01:17:49.832Z,37.88
2022-08-10T01:18:28.133Z,37.29
2022-08-10T01:19:27.098Z,37.99
2022-08-10T01:20:31.051Z,35.86
2022-08-10T01:21:27.078Z,36.78
2022-08-10T01:22:27.136Z,33.74
2022-08-10T01:23:27.053Z,33.64
2022-08-10T01:24:27.041Z,32.93
2022-08-10T01:25:27.029Z,31.61
2022-08-10T01:26:31.112Z,30.40
2022-08-10T01:27:27.433Z,32.82
2022-08-10T01:28:26.999Z,34.05
2022-08-10T01:29:26.986Z,34.45
2022-08-10T01:30:26.976Z,31.61
2022-08-10T01:31:26.966Z,30.50
2022-08-10T01:32:27.092Z,31.61
2022-08-10T01:33:31.796Z,31.21
2022-08-10T01:34:27.953Z,30.19
2022-08-10T01:35:26.920Z,29.58
2022-08-10T01:36:32.493Z,30.80
2022-08-10T01:37:26.895Z,30.29
2022-08-10T01:38:26.885Z,30.40
2022-08-10T01:39:26.984Z,30.29
2022-08-10T01:40:26.864Z,32.12
2022-08-10T01:41:26.854Z,29.99
2022-08-10T01:42:26.954Z,32.12
2022-08-10T01:43:26.829Z,31.61
2022-08-10T01:44:26.822Z,34.65
2022-08-10T01:45:26.809Z,31.52
2022-08-10T01:46:26.851Z,33.45
2022-08-10T01:47:27.402Z,32.34
2022-08-10T01:48:26.780Z,32.64
2022-08-10T01:49:26.766Z,32.44
2022-08-10T01:50:26.758Z,30.62
2022-08-10T01:51:26.792Z,30.62
2022-08-10T01:52:26.740Z,30.41
2022-08-10T01:53:26.723Z,32.34
2022-08-10T01:54:26.713Z,32.34
2022-08-10T01:55:26.701Z,32.64
2022-08-10T01:56:26.940Z,31.32
2022-08-10T01:57:26.679Z,31.63
2022-08-10T01:58:26.673Z,30.21
2022-08-10T01:59:26.667Z,30.31
2022-08-10T02:00:26.648Z,30.10
2022-08-10T02:01:26.885Z,31.13
2022-08-10T02:02:26.670Z,31.44
2022-08-10T02:03:26.614Z,32.25
2022-08-10T02:04:26.603Z,30.52
2022-08-10T02:05:26.590Z,32.56
2022-08-10T02:06:26.579Z,30.02
2022-08-10T02:07:26.573Z,29.92
2022-08-10T02:08:26.560Z,29.31
2022-08-10T02:09:26.546Z,28.30
2022-08-10T02:10:26.536Z,28.90
2022-08-10T02:11:26.524Z,30.52
2022-08-10T02:12:26.558Z,29.82
2022-08-10T02:13:26.504Z,29.63
2022-08-10T02:14:33.224Z,29.11
2022-08-10T02:15:27.506Z,28.19
2022-08-10T02:16:26.471Z,28.30
2022-08-10T02:17:59.593Z,28.31
2022-08-10T02:18:26.451Z,28.39
2022-08-10T02:19:26.436Z,28.39
2022-08-10T02:20:26.424Z,29.31
2022-08-10T02:21:26.414Z,30.33
2022-08-10T02:22:36.446Z,30.24
2022-08-10T02:23:27.417Z,29.93
2022-08-10T02:24:26.382Z,32.67
2022-08-10T02:25:41.774Z,31.56
2022-08-10T02:26:27.381Z,29.83
2022-08-10T02:27:26.345Z,29.12
2022-08-10T02:28:30.227Z,30.74
2022-08-10T02:29:26.322Z,30.94
2022-08-10T02:30:26.313Z,29.94
2022-08-10T02:31:26.302Z,29.12
2022-08-10T02:32:38.146Z,30.85
2022-08-10T02:33:27.304Z,29.54
2022-08-10T02:34:26.266Z,29.03
2022-08-10T02:35:26.253Z,31.87
2022-08-10T02:36:26.243Z,30.55
2022-08-10T02:37:26.240Z,29.64
2022-08-10T02:38:58.125Z,28.63
2022-08-10T02:39:27.291Z,29.13
2022-08-10T02:45:02.364Z,32.07
2022-08-10T02:45:13.864Z,29.44
2022-08-10T02:45:21.967Z,28.12
2022-08-10T02:45:22.799Z,30.86
2022-08-10T02:45:25.719Z,29.85
2022-08-10T02:45:31.137Z,30.35
2022-08-10T02:46:26.347Z,28.32
2022-08-10T02:47:26.119Z,28.52
2022-08-10T02:48:26.109Z,29.24
2022-08-10T02:49:26.095Z,27.51
2022-08-10T02:50:26.087Z,28.02
2022-08-10T02:52:06.695Z,31.68
2022-08-10T02:52:27.133Z,32.70
2022-08-10T02:53:54.976Z,29.66
2022-08-10T02:54:26.041Z,28.13
2022-08-10T02:55:27.145Z,27.83
2022-08-10T02:56:26.021Z,29.25
2022-08-10T02:57:26.005Z,29.05
2022-08-10T02:58:25.996Z,32.50
2022-08-10T02:59:25.982Z,30.26
2022-08-10T03:00:25.973Z,28.44
2022-08-10T03:01:26.060Z,26.91
2022-08-10T03:02:25.985Z,27.42
2022-08-10T03:03:25.938Z,27.83
2022-08-10T03:04:55.887Z,27.52
2022-08-10T03:05:25.915Z,27.83
2022-08-10T03:06:25.910Z,27.42
2022-08-10T03:07:43.320Z,29.14
2022-08-10T03:08:25.881Z,29.97
2022-08-10T03:09:25.868Z,30.79
2022-08-10T03:10:25.858Z,29.36
2022-08-10T03:12:35.347Z,28.65
2022-08-10T03:12:38.476Z,31.40
2022-08-10T03:13:25.825Z,29.36
2022-08-10T03:14:25.817Z,30.79
2022-08-10T03:15:25.803Z,28.96
2022-08-10T03:16:25.792Z,28.96
2022-08-10T03:17:25.780Z,29.06
2022-08-10T03:18:25.770Z,28.45
2022-08-10T03:20:35.560Z,28.14
2022-08-10T03:20:38.024Z,29.97
2022-08-10T03:21:26.760Z,31.09
2022-08-10T03:22:25.724Z,29.28
2022-08-10T03:23:25.713Z,28.65
2022-08-10T03:24:33.536Z,29.26
2022-08-10T03:25:25.688Z,31.21
2022-08-10T03:26:25.683Z,28.77
2022-08-10T03:27:25.668Z,28.25
2022-08-10T03:28:25.657Z,27.85
2022-08-10T03:29:25.643Z,26.42
2022-08-10T03:30:32.796Z,26.21
2022-08-10T03:31:25.620Z,28.26
2022-08-10T03:32:25.636Z,28.16
2022-08-10T03:33:25.605Z,29.28
2022-08-10T03:34:33.320Z,29.07
2022-08-10T03:35:25.577Z,28.56
2022-08-10T03:36:43.020Z,28.67
2022-08-10T03:37:25.553Z,28.36
2022-08-10T03:38:25.548Z,27.55
2022-08-10T03:39:25.573Z,28.87
2022-08-10T03:40:25.525Z,29.99
2022-08-10T03:41:25.509Z,28.06
2022-08-10T03:42:25.499Z,29.88
2022-08-10T03:43:25.485Z,29.99
2022-08-10T03:44:25.475Z,29.99
2022-08-10T03:45:25.462Z,28.46
2022-08-10T03:46:25.453Z,27.34
2022-08-10T03:47:25.439Z,26.93
2022-08-10T03:48:33.274Z,29.58
2022-08-10T03:49:25.420Z,27.75
2022-08-10T03:50:27.585Z,27.34
2022-08-10T03:51:25.395Z,26.23
2022-08-10T03:52:25.386Z,26.23
2022-08-10T03:54:02.423Z,26.23
2022-08-10T03:54:25.364Z,27.85
2022-08-10T03:56:27.315Z,25.51
2022-08-10T03:56:28.428Z,25.31
2022-08-10T03:57:25.331Z,26.12
2022-08-10T03:58:25.316Z,28.16
2022-08-10T03:59:25.303Z,29.88
2022-08-10T04:00:25.297Z,28.46
2022-08-10T04:02:43.940Z,27.95
2022-08-10T04:02:52.871Z,29.48
2022-08-10T04:03:25.263Z,31.32
2022-08-10T04:04:25.934Z,26.53
2022-08-10T04:05:25.237Z,25.82
2022-08-10T04:06:25.226Z,26.63
2022-08-10T04:07:25.377Z,27.04
2022-08-10T04:08:25.226Z,26.63
2022-08-10T04:09:42.966Z,27.04
2022-08-10T04:10:25.181Z,28.77
2022-08-10T04:11:25.169Z,27.24
2022-08-10T04:12:25.161Z,28.06
2022-08-10T04:13:25.146Z,27.45
2022-08-10T04:14:38.012Z,27.95
2022-08-10T04:15:26.156Z,27.45
2022-08-10T04:16:25.116Z,29.17
2022-08-10T04:17:56.728Z,28.06
2022-08-10T04:18:26.116Z,27.75
2022-08-10T04:19:25.079Z,30.90
2022-08-10T04:20:25.069Z,28.67
2022-08-10T04:21:25.062Z,29.17
2022-08-10T04:22:25.049Z,28.26
2022-08-10T04:23:25.034Z,28.56
2022-08-10T04:24:29.813Z,29.88
2022-08-10T04:25:25.014Z,28.67
2022-08-10T04:26:25.156Z,29.68
2022-08-10T04:27:24.992Z,29.58
2022-08-10T04:28:24.977Z,28.67
2022-08-10T04:29:24.966Z,27.84
2022-08-10T04:30:24.955Z,27.53
2022-08-10T04:31:24.945Z,27.33
2022-08-10T04:32:24.934Z,27.53
2022-08-10T04:33:24.924Z,28.86
2022-08-10T04:34:24.911Z,27.72
2022-08-10T04:35:24.901Z,27.72
2022-08-10T04:36:24.889Z,27.93
2022-08-10T04:37:24.879Z,28.33
2022-08-10T04:38:24.866Z,29.14
2022-08-10T04:39:24.887Z,29.55
2022-08-10T04:40:30.294Z,29.33
2022-08-10T04:41:25.868Z,29.24
2022-08-10T04:42:24.848Z,29.85
2022-08-10T04:43:24.812Z,29.85
2022-08-10T04:44:24.798Z,31.06
2022-08-10T04:45:24.789Z,30.35
2022-08-10T04:46:55.347Z,31.47
2022-08-10T04:47:57.295Z,30.05
2022-08-10T04:48:41.308Z,30.94
2022-08-10T04:49:52.172Z,30.74
2022-08-10T04:50:25.772Z,30.74
2022-08-10T04:51:24.727Z,31.66
2022-08-10T04:52:25.285Z,32.98
2022-08-10T04:53:24.705Z,33.06
2022-08-10T04:54:24.689Z,32.86
2022-08-10T04:55:24.682Z,34.58
2022-08-10T04:56:32.065Z,32.96
2022-08-10T04:57:25.705Z,33.06
2022-08-10T04:58:24.648Z,34.48
2022-08-10T04:59:24.649Z,35.07
2022-08-10T05:00:24.623Z,35.38
2022-08-10T05:01:25.117Z,34.97
2022-08-10T05:02:31.291Z,34.77
2022-08-10T05:03:24.593Z,36.19
2022-08-10T05:04:36.624Z,35.17
2022-08-10T05:05:25.594Z,35.78
2022-08-10T05:06:24.563Z,35.88
2022-08-10T05:07:24.549Z,35.78
2022-08-10T05:08:24.537Z,35.58
2022-08-10T05:09:24.539Z,39.64
2022-08-10T05:10:24.511Z,39.11
2022-08-10T05:11:24.512Z,37.59
2022-08-10T05:12:24.489Z,37.18
2022-08-10T05:13:24.480Z,37.08
2022-08-10T05:14:24.464Z,39.39
2022-08-10T05:15:24.471Z,42.31
2022-08-10T05:16:32.056Z,43.91
2022-08-10T05:17:25.458Z,45.20
2022-08-10T05:18:24.419Z,47.19
2022-08-10T05:20:03.031Z,53.72
2022-08-10T05:20:25.422Z,58.78
2022-08-10T05:21:59.855Z,55.34
2022-08-10T05:22:25.399Z,56.65
2022-08-10T05:23:24.416Z,59.35
2022-08-10T05:24:24.354Z,60.06
2022-08-10T05:25:24.344Z,58.01
2022-08-10T05:26:24.330Z,66.36
2022-08-10T05:27:24.326Z,65.35
2022-08-10T05:28:24.310Z,70.56
2022-08-10T05:29:25.321Z,72.04
2022-08-10T05:30:24.285Z,77.34
2022-08-10T05:31:24.310Z,72.11
2022-08-10T05:32:24.264Z,77.11
2022-08-10T05:33:24.256Z,76.56
2022-08-10T05:34:24.243Z,78.21
2022-08-10T05:35:24.301Z,71.36
2022-08-10T05:36:24.221Z,77.11
2022-08-10T05:38:10.951Z,78.71
2022-08-10T05:38:24.202Z,79.02
2022-08-10T05:39:28.833Z,80.22
2022-08-10T05:40:24.175Z,79.72
2022-08-10T05:41:24.163Z,80.12
2022-08-10T05:42:24.150Z,78.71
2022-08-10T05:43:24.173Z,79.82
2022-08-10T05:44:24.131Z,79.86
2022-08-10T05:45:24.123Z,79.56
2022-08-10T05:46:24.106Z,79.66
2022-08-10T05:47:24.148Z,79.36
2022-08-10T05:48:55.067Z,75.43
2022-08-10T05:49:24.075Z,76.80
2022-08-10T05:50:24.065Z,80.22
2022-08-10T05:51:24.051Z,77.73
2022-08-10T05:52:24.041Z,78.10
2022-08-10T05:54:02.530Z,83.03
2022-08-10T05:54:24.017Z,84.99
2022-08-10T05:55:24.020Z,83.04
2022-08-10T05:56:24.006Z,86.92
2022-08-10T05:57:24.008Z,88.59
2022-08-10T05:58:23.995Z,87.42
2022-08-10T06:00:35.831Z,86.42
2022-08-10T06:00:37.305Z,86.50
2022-08-10T06:01:24.008Z,84.53
2022-08-10T06:02:34.099Z,84.63
2022-08-10T06:03:24.351Z,83.47
2022-08-10T06:04:23.908Z,82.72
2022-08-10T06:05:23.896Z,84.88
2022-08-10T06:06:24.959Z,84.17
2022-08-10T06:07:23.876Z,85.84
2022-08-10T06:08:23.861Z,85.33
2022-08-10T06:09:23.852Z,83.76
2022-08-10T06:10:32.631Z,82.26
2022-08-10T06:12:23.762Z,81.26
2022-08-10T06:12:28.589Z,80.58
2022-08-10T06:13:30.694Z,81.99
2022-08-10T06:14:28.560Z,79.48
2022-08-10T06:15:51.929Z,80.45
2022-08-10T06:16:23.774Z,82.86
2022-08-10T06:17:23.764Z,83.97
2022-08-10T06:18:23.754Z,83.17
2022-08-10T06:19:23.747Z,83.47
2022-08-10T06:20:23.729Z,84.88
2022-08-10T06:21:23.717Z,82.06
2022-08-10T06:22:23.708Z,83.11
2022-08-10T06:23:23.783Z,81.39
2022-08-10T06:24:25.274Z,81.59
2022-08-10T06:26:11.669Z,82.40
2022-08-10T06:26:24.685Z,81.70
2022-08-10T06:27:34.568Z,82.90
2022-08-10T06:28:24.691Z,81.76
2022-08-10T06:29:23.628Z,81.35
2022-08-10T06:30:23.615Z,82.26
2022-08-10T06:31:23.604Z,83.26
2022-08-10T06:32:23.592Z,83.93
2022-08-10T06:33:23.583Z,83.57
2022-08-10T06:34:23.685Z,83.06
2022-08-10T06:35:23.560Z,80.61
2022-08-10T06:36:23.564Z,83.12
2022-08-10T06:37:23.534Z,84.13
2022-08-10T06:38:23.523Z,85.10
2022-08-10T06:39:33.392Z,85.90
2022-08-10T06:40:24.664Z,86.66
2022-08-10T06:41:23.488Z,87.96
2022-08-10T06:42:24.503Z,88.07
2022-08-10T06:43:23.467Z,87.51
2022-08-10T06:44:23.456Z,87.16
2022-08-10T06:45:23.499Z,87.16
2022-08-10T06:46:23.436Z,86.96
2022-08-10T06:47:23.518Z,88.37
2022-08-10T06:48:23.412Z,86.76
2022-08-10T06:49:23.402Z,88.43
2022-08-10T06:50:34.833Z,87.62
2022-08-10T06:51:24.467Z,87.48
2022-08-10T06:52:23.369Z,87.68
2022-08-10T06:53:23.360Z,88.64
2022-08-10T06:54:23.343Z,89.45
2022-08-10T06:55:23.391Z,87.44
2022-08-10T06:56:36.861Z,90.41
2022-08-10T06:57:24.336Z,89.46
2022-08-10T06:58:26.589Z,90.77
2022-08-10T06:59:23.296Z,91.72
2022-08-10T07:00:23.365Z,91.74
2022-08-10T07:01:24.556Z,91.83
2022-08-10T07:02:23.257Z,92.89
2022-08-10T07:03:23.249Z,93.39
2022-08-10T07:04:32.395Z,93.15
2022-08-10T07:05:23.275Z,93.30
2022-08-10T07:06:23.461Z,93.50
2022-08-10T07:07:23.296Z,92.76
2022-08-10T07:08:23.348Z,93.05
2022-08-10T07:09:23.339Z,93.12
2022-08-10T07:10:23.452Z,93.17
2022-08-10T07:11:23.347Z,92.22
2022-08-10T07:12:23.147Z,92.13
2022-08-10T07:14:15.824Z,91.43
2022-08-10T07:14:23.172Z,91.78
2022-08-10T07:15:23.154Z,88.01
2022-08-10T07:16:23.100Z,87.02
2022-08-10T07:17:23.110Z,87.47
2022-08-10T07:18:23.126Z,83.19
2022-08-10T07:19:23.069Z,77.28
2022-08-10T07:20:23.059Z,77.75
2022-08-10T07:21:23.047Z,78.84
2022-08-10T07:23:01.650Z,75.92
2022-08-10T07:23:55.698Z,75.26
2022-08-10T07:24:24.149Z,76.98
2022-08-10T07:25:23.007Z,75.49
2022-08-10T07:26:22.992Z,79.53
2022-08-10T07:27:22.983Z,76.95
2022-08-10T07:28:22.977Z,73.90
2022-08-10T07:29:26.622Z,72.71
2022-08-10T07:30:22.950Z,71.58
2022-08-10T07:31:31.144Z,68.76
2022-08-10T07:32:22.929Z,67.67
2022-08-10T07:33:22.918Z,66.45
2022-08-10T07:34:29.341Z,65.06
2022-08-10T07:35:24.014Z,63.28
2022-08-10T07:36:22.884Z,65.29
2022-08-10T07:37:22.874Z,65.78
2022-08-10T07:38:22.862Z,63.93
2022-08-10T07:40:03.789Z,66.28
2022-08-10T07:40:23.175Z,65.59
2022-08-10T07:41:22.833Z,65.75
2022-08-10T07:42:22.818Z,61.49
2022-08-10T07:43:22.809Z,62.68
2022-08-10T07:44:22.798Z,62.65
2022-08-10T07:45:22.793Z,61.16
2022-08-10T07:46:22.778Z,62.78
2022-08-10T07:47:53.207Z,62.29
2022-08-10T07:48:23.786Z,62.88
2022-08-10T07:49:22.753Z,63.15
2022-08-10T07:50:22.792Z,60.40
2022-08-10T07:51:22.726Z,64.83
2022-08-10T07:52:22.716Z,65.36
2022-08-10T07:53:22.707Z,66.12
2022-08-10T07:54:22.689Z,62.62
2022-08-10T07:56:05.099Z,59.19
2022-08-10T07:56:45.819Z,57.98
2022-08-10T07:57:30.749Z,56.99
2022-08-10T07:58:23.676Z,57.41
2022-08-10T07:59:22.641Z,57.81
2022-08-10T08:00:22.644Z,58.57
2022-08-10T08:01:22.745Z,56.69
2022-08-10T08:02:22.609Z,58.87
2022-08-10T08:03:22.599Z,58.77
2022-08-10T08:04:22.587Z,58.34
2022-08-10T08:05:57.467Z,58.42
2022-08-10T08:06:23.620Z,56.93
2022-08-10T08:07:22.572Z,56.41
2022-08-10T08:08:22.583Z,54.53
2022-08-10T08:09:22.543Z,54.63
2022-08-10T08:10:22.526Z,55.65
2022-08-10T08:11:26.129Z,56.04
2022-08-10T08:12:22.508Z,55.22
2022-08-10T08:13:22.494Z,55.55
2022-08-10T08:14:22.485Z,55.03
2022-08-10T08:16:20.612Z,54.51
2022-08-10T08:16:22.517Z,54.68
2022-08-10T08:17:22.453Z,53.86
2022-08-10T08:18:25.353Z,53.75
2022-08-10T08:19:35.437Z,53.80
2022-08-10T08:20:23.446Z,54.88
2022-08-10T08:24:06.836Z,53.69
2022-08-10T08:24:07.661Z,54.14
2022-08-10T08:24:07.807Z,53.08
2022-08-10T08:24:33.110Z,53.08
2022-08-10T08:25:23.392Z,53.54
2022-08-10T08:26:22.357Z,52.33
2022-08-10T08:27:22.349Z,52.43
2022-08-10T08:28:22.338Z,52.14
2022-08-10T08:29:22.529Z,51.35
2022-08-10T08:30:27.805Z,50.09
2022-08-10T08:31:22.315Z,51.40
2022-08-10T08:32:22.315Z,51.20
2022-08-10T08:33:42.182Z,51.28
2022-08-10T08:34:23.299Z,51.10
2022-08-10T08:35:22.269Z,52.41
2022-08-10T08:36:22.259Z,53.67
2022-08-10T08:38:31.054Z,51.74
2022-08-10T08:38:33.086Z,52.75
2022-08-10T08:39:22.296Z,51.10
2022-08-10T08:40:22.256Z,50.42
2022-08-10T08:41:22.210Z,49.57
2022-08-10T08:42:22.200Z,51.12
2022-08-10T08:43:22.189Z,49.65
2022-08-10T08:44:22.195Z,48.86
2022-08-10T08:45:22.185Z,49.43
2022-08-10T08:46:22.170Z,50.43
2022-08-10T08:48:03.313Z,51.15
2022-08-10T08:48:22.140Z,53.15
2022-08-10T08:50:04.559Z,53.20
2022-08-10T08:50:23.405Z,51.57
2022-08-10T08:52:09.539Z,51.15
2022-08-10T08:52:23.121Z,50.12
2022-08-10T08:53:22.668Z,49.45
2022-08-10T08:54:22.108Z,47.95
2022-08-10T08:56:04.420Z,48.22
2022-08-10T08:56:23.090Z,48.83
2022-08-10T08:57:23.689Z,48.74
2022-08-10T08:58:22.038Z,49.01
2022-08-10T08:59:22.025Z,50.16
2022-08-10T09:00:22.015Z,46.01
2022-08-10T09:01:22.083Z,46.17
2022-08-10T09:02:21.994Z,45.77
2022-08-10T09:03:26.238Z,45.43
2022-08-10T09:04:23.001Z,45.75
2022-08-10T09:05:21.967Z,45.87
2022-08-10T09:06:21.960Z,46.85
2022-08-10T09:07:59.356Z,46.17
2022-08-10T09:08:21.955Z,44.65
2022-08-10T09:09:21.924Z,44.21
2022-08-10T09:10:21.914Z,43.04
2022-08-10T09:11:21.907Z,43.76
2022-08-10T09:12:21.897Z,44.04
2022-08-10T09:13:21.884Z,43.65
2022-08-10T09:14:25.539Z,43.15
2022-08-10T09:15:39.488Z,43.15
2022-08-10T09:16:22.882Z,44.18
2022-08-10T09:17:21.875Z,44.57
2022-08-10T09:18:21.838Z,45.14
2022-08-10T09:19:35.327Z,44.23
2022-08-10T09:20:21.821Z,44.16
2022-08-10T09:21:21.811Z,45.30
2022-08-10T09:22:21.795Z,45.92
2022-08-10T09:23:21.788Z,46.58
2022-08-10T09:24:21.774Z,47.34
2022-08-10T09:25:21.796Z,45.57
2022-08-10T09:26:21.755Z,44.89
2022-08-10T09:27:21.788Z,45.16
2022-08-10T09:28:21.777Z,44.84
2022-08-10T09:29:21.721Z,43.66
2022-08-10T09:30:28.360Z,42.19
2022-08-10T09:31:23.135Z,43.73
2022-08-10T09:36:14.870Z,44.71
2022-08-10T09:36:20.167Z,43.49
2022-08-10T09:36:21.269Z,43.88
2022-08-10T09:36:21.418Z,42.41
2022-08-10T09:36:33.371Z,42.29
2022-08-10T09:37:21.661Z,41.82
2022-08-10T09:38:21.636Z,41.64
2022-08-10T09:40:12.284Z,42.29
2022-08-10T09:41:02.256Z,42.02
2022-08-10T09:41:21.648Z,42.51
2022-08-10T09:42:21.596Z,42.76
2022-08-10T09:43:25.418Z,42.05
2022-08-10T09:44:21.574Z,41.45
2022-08-10T09:45:21.563Z,41.13
2022-08-10T09:46:21.602Z,40.53
2022-08-10T09:47:21.569Z,40.70
2022-08-10T09:48:22.580Z,38.73
2022-08-10T09:49:25.870Z,39.41
2022-08-10T09:50:22.586Z,40.55
2022-08-10T09:51:44.905Z,40.39
2022-08-10T09:52:22.532Z,41.96
2022-08-10T09:53:21.489Z,40.80
2022-08-10T09:54:21.483Z,41.71
2022-08-10T09:55:21.470Z,42.13
2022-08-10T09:56:26.766Z,40.70
2022-08-10T09:57:44.401Z,38.34
2022-08-10T09:58:22.475Z,38.73
2022-08-10T09:59:59.316Z,38.65
2022-08-10T10:00:21.425Z,39.35
2022-08-10T10:01:23.592Z,40.80
2022-08-10T10:02:22.425Z,39.61
2022-08-10T10:03:25.817Z,37.87
2022-08-10T10:04:21.383Z,38.26
2022-08-10T10:05:21.377Z,38.12
2022-08-10T10:06:21.362Z,37.95
2022-08-10T10:07:21.351Z,37.73
2022-08-10T10:08:21.359Z,36.63
2022-08-10T10:09:26.842Z,36.46
2022-08-10T10:10:21.322Z,36.28
2022-08-10T10:11:21.309Z,37.19
2022-08-10T10:12:21.299Z,37.88
2022-08-10T10:13:52.886Z,37.49
2022-08-10T10:14:22.354Z,38.49
2022-08-10T10:15:24.681Z,37.59
2022-08-10T10:16:21.262Z,38.14
2022-08-10T10:17:21.247Z,37.24
2022-08-10T10:18:21.240Z,37.54
2022-08-10T10:19:21.287Z,36.83
2022-08-10T10:20:21.247Z,36.55
2022-08-10T10:21:52.299Z,35.46
2022-08-10T10:22:21.205Z,35.45
2022-08-10T10:23:21.193Z,36.07
2022-08-10T10:24:22.831Z,36.88
2022-08-10T10:25:21.530Z,37.31
2022-08-10T10:26:21.160Z,38.16
2022-08-10T10:27:21.151Z,38.22
2022-08-10T10:28:21.145Z,38.14
2022-08-10T10:29:56.308Z,37.06
2022-08-10T10:30:22.173Z,37.87
2022-08-10T10:31:21.111Z,37.43
2022-08-10T10:32:21.105Z,36.52
2022-08-10T10:33:21.093Z,35.82
2022-08-10T10:34:21.088Z,36.29
2022-08-10T10:35:21.077Z,34.91
2022-08-10T10:36:21.066Z,35.31
2022-08-10T10:37:21.052Z,36.23
2022-08-10T10:38:21.047Z,36.58
2022-08-10T10:39:24.062Z,36.08
2022-08-10T10:40:21.025Z,34.89
2022-08-10T10:41:21.019Z,34.79
2022-08-10T10:42:44.182Z,35.30
2022-08-10T10:43:22.019Z,34.83
2022-08-10T10:44:20.989Z,35.16
2022-08-10T10:45:20.978Z,36.13
2022-08-10T10:46:23.193Z,36.23
2022-08-10T10:47:20.958Z,35.63
2022-08-10T10:48:24.238Z,35.31
2022-08-10T10:49:20.938Z,34.31
2022-08-10T10:50:20.933Z,35.20
2022-08-10T10:51:20.918Z,35.34
2022-08-10T10:52:20.914Z,33.51
2022-08-10T10:53:20.997Z,34.08
2022-08-10T10:54:20.897Z,34.66
2022-08-10T10:55:20.880Z,34.09
2022-08-10T10:56:20.873Z,33.69
2022-08-10T10:57:20.859Z,34.05
2022-08-10T10:58:24.214Z,32.89
2022-08-10T10:59:53.891Z,32.70
2022-08-10T11:00:21.862Z,33.07
2022-08-10T11:01:20.874Z,32.73
2022-08-10T11:02:20.819Z,33.22
2022-08-10T11:03:20.809Z,32.92
2022-08-10T11:04:20.877Z,33.18
2022-08-10T11:05:20.793Z,32.59
2022-08-10T11:06:20.785Z,32.45
2022-08-10T11:07:21.967Z,31.37
2022-08-10T11:08:20.765Z,32.47
2022-08-10T11:10:07.960Z,32.08
2022-08-10T11:10:32.870Z,32.86
2022-08-10T11:12:02.007Z,32.84
2022-08-10T11:12:26.127Z,32.76
2022-08-10T11:14:26.589Z,31.30
2022-08-10T11:14:28.536Z,32.17
2022-08-10T11:15:20.705Z,31.30
2022-08-10T11:16:20.689Z,32.55
2022-08-10T11:17:20.677Z,31.68
2022-08-10T11:18:20.673Z,32.47
2022-08-10T11:19:20.659Z,33.04
2022-08-10T11:20:20.651Z,30.79
2022-08-10T11:21:20.643Z,31.18
2022-08-10T11:22:20.632Z,31.27
2022-08-10T11:23:20.621Z,30.98
2022-08-10T11:24:48.836Z,30.87
2022-08-10T11:25:20.719Z,29.69
2022-08-10T11:26:20.614Z,30.30
2022-08-10T11:27:22.009Z,31.37
2022-08-10T11:28:20.578Z,30.47
2022-08-10T11:29:20.564Z,30.35
2022-08-10T11:30:20.710Z,30.92
2022-08-10T11:31:20.543Z,30.84
2022-08-10T11:32:21.347Z,30.66
2022-08-10T11:33:30.581Z,32.45
2022-08-10T11:34:47.075Z,31.95
2022-08-10T11:35:20.521Z,31.81
2022-08-10T11:36:20.545Z,30.94
2022-08-10T11:37:20.483Z,31.94
2022-08-10T11:38:31.230Z,30.77
2022-08-10T11:39:21.542Z,31.57
2022-08-10T11:40:20.458Z,32.57
2022-08-10T11:42:09.752Z,32.10
2022-08-10T11:42:31.663Z,32.67
2022-08-10T11:43:21.445Z,31.68
2022-08-10T11:44:20.427Z,31.70
2022-08-10T11:45:20.407Z,32.10
2022-08-10T11:46:28.463Z,32.57
2022-08-10T11:47:21.419Z,32.62
2022-08-10T11:48:54.227Z,33.23
2022-08-10T11:49:21.394Z,34.03
2022-08-10T11:50:20.362Z,33.88
2022-08-10T11:51:20.349Z,32.59
2022-08-10T11:52:20.342Z,31.29
2022-08-10T11:53:20.342Z,30.59
2022-08-10T11:54:20.327Z,30.85
2022-08-10T11:55:20.347Z,30.66
2022-08-10T11:56:20.369Z,30.08
2022-08-10T11:57:21.248Z,29.98
2022-08-10T11:58:20.285Z,29.21
2022-08-10T11:59:20.273Z,29.58
2022-08-10T12:00:20.269Z,29.60
2022-08-10T12:01:20.253Z,30.27
2022-08-10T12:02:20.327Z,30.26
2022-08-10T12:03:20.232Z,31.15
2022-08-10T12:04:20.228Z,31.24
2022-08-10T12:05:20.216Z,30.27
2022-08-10T12:06:39.328Z,31.08
2022-08-10T12:09:24.025Z,31.01
2022-08-10T12:10:02.098Z,31.82
2022-08-10T12:10:09.364Z,31.76
2022-08-10T12:10:20.168Z,32.15
2022-08-10T12:11:24.534Z,32.11
2022-08-10T12:12:20.150Z,32.08
2022-08-10T12:13:20.141Z,30.68
2022-08-10T12:14:22.173Z,29.97
2022-08-10T12:15:20.125Z,29.08
2022-08-10T12:16:20.151Z,29.85
2022-08-10T12:17:20.097Z,29.61
2022-08-10T12:18:20.094Z,30.41
2022-08-10T12:19:20.080Z,31.30
2022-08-10T12:20:20.067Z,31.60
2022-08-10T12:21:21.570Z,31.00
2022-08-10T12:22:20.052Z,30.77
2022-08-10T12:23:20.042Z,30.35
2022-08-10T12:24:20.031Z,30.05
2022-08-10T12:25:56.927Z,30.62
2022-08-10T12:26:20.047Z,29.15
2022-08-10T12:27:20.023Z,29.26
2022-08-10T12:28:19.993Z,29.46
2022-08-10T12:29:24.833Z,29.36
2022-08-10T12:30:20.055Z,29.53
2022-08-10T12:31:19.961Z,30.39
2022-08-10T12:32:25.501Z,29.12
2022-08-10T12:33:19.966Z,28.72
2022-08-10T12:34:19.943Z,28.36
2022-08-10T12:35:21.846Z,28.58
2022-08-10T12:36:19.977Z,28.96
2022-08-10T12:37:19.959Z,28.18
2022-08-10T12:38:19.900Z,28.87
2022-08-10T12:39:19.980Z,29.57
2022-08-10T12:40:36.697Z,29.30
2022-08-10T12:41:43.393Z,30.09
2022-08-10T12:42:37.012Z,29.60
2022-08-10T12:44:06.250Z,28.59
2022-08-10T12:44:20.866Z,29.01
2022-08-10T12:45:21.143Z,29.28
2022-08-10T12:46:19.824Z,28.70
2022-08-10T12:47:19.833Z,29.64
2022-08-10T12:48:19.798Z,28.79
2022-08-10T12:49:19.792Z,30.50
2022-08-10T12:50:30.772Z,30.02
2022-08-10T12:51:20.811Z,30.50
2022-08-10T12:52:19.766Z,29.46